sensor_id;sensor_type;location;lat;lon;timestamp;pressure;altitude;pressure_sealevel;temperature;humidity
54816;BME280;40715;55.752;37.884;2023-03-18T00:01:08;100622.81;;;29.83;24.25
54816;BME280;40715;55.752;37.884;2023-03-18T00:03:35;100627.28;;;29.84;24.40
54816;BME280;40715;55.752;37.884;2023-03-18T00:06:08;100627.38;;;29.82;24.52
54816;BME280;40715;55.752;37.884;2023-03-18T00:08:38;100630.94;;;29.83;24.35
54816;BME280;40715;55.752;37.884;2023-03-18T00:11:06;100636.50;;;29.81;24.46
54816;BME280;40715;55.752;37.884;2023-03-18T00:13:34;100633.81;;;29.81;24.33
54816;BME280;40715;55.752;37.884;2023-03-18T00:16:02;100625.78;;;29.79;24.29
54816;BME280;40715;55.752;37.884;2023-03-18T00:18:30;100636.66;;;29.79;24.01
54816;BME280;40715;55.752;37.884;2023-03-18T00:20:58;100632.22;;;29.78;24.43
54816;BME280;40715;55.752;37.884;2023-03-18T00:23:27;100642.97;;;29.80;24.06
54816;BME280;40715;55.752;37.884;2023-03-18T00:25:55;100640.34;;;29.78;24.08
54816;BME280;40715;55.752;37.884;2023-03-18T00:28:23;100642.34;;;29.76;24.19
54816;BME280;40715;55.752;37.884;2023-03-18T00:30:50;100645.06;;;29.76;24.24
54816;BME280;40715;55.752;37.884;2023-03-18T00:33:17;100635.94;;;29.77;24.15
54816;BME280;40715;55.752;37.884;2023-03-18T00:35:46;100643.22;;;29.77;24.35
54816;BME280;40715;55.752;37.884;2023-03-18T00:38:13;100646.06;;;29.75;24.09
54816;BME280;40715;55.752;37.884;2023-03-18T00:40:47;100654.06;;;29.77;24.46
54816;BME280;40715;55.752;37.884;2023-03-18T00:43:34;100651.13;;;29.80;24.27
54816;BME280;40715;55.752;37.884;2023-03-18T00:46:13;100659.50;;;29.77;24.37
54816;BME280;40715;55.752;37.884;2023-03-18T00:48:43;100658.78;;;29.75;24.35
54816;BME280;40715;55.752;37.884;2023-03-18T00:51:10;100657.81;;;29.76;24.23
54816;BME280;40715;55.752;37.884;2023-03-18T00:53:40;100653.34;;;29.75;24.10
54816;BME280;40715;55.752;37.884;2023-03-18T00:56:08;100642.16;;;29.68;24.31
54816;BME280;40715;55.752;37.884;2023-03-18T00:58:35;100655.94;;;29.76;24.33
54816;BME280;40715;55.752;37.884;2023-03-18T01:01:04;100655.22;;;29.74;24.17
54816;BME280;40715;55.752;37.884;2023-03-18T01:03:31;100656.34;;;29.72;24.21
54816;BME280;40715;55.752;37.884;2023-03-18T01:06:00;100647.47;;;29.70;24.12
54816;BME280;40715;55.752;37.884;2023-03-18T01:08:28;100659.63;;;29.75;24.11
54816;BME280;40715;55.752;37.884;2023-03-18T01:10:56;100659.63;;;29.75;24.11
54816;BME280;40715;55.752;37.884;2023-03-18T01:13:24;100661.50;;;29.75;24.25
54816;BME280;40715;55.752;37.884;2023-03-18T01:15:51;100668.66;;;29.76;24.02
54816;BME280;40715;55.752;37.884;2023-03-18T01:18:19;100669.53;;;29.76;24.32
54816;BME280;40715;55.752;37.884;2023-03-18T01:20:46;100672.22;;;29.76;24.02
54816;BME280;40715;55.752;37.884;2023-03-18T01:23:14;100677.81;;;29.75;23.95
54816;BME280;40715;55.752;37.884;2023-03-18T01:25:41;100677.81;;;29.75;24.16
54816;BME280;40715;55.752;37.884;2023-03-18T01:28:11;100684.22;;;29.74;24.00
54816;BME280;40715;55.752;37.884;2023-03-18T01:30:39;100689.66;;;29.74;24.22
54816;BME280;40715;55.752;37.884;2023-03-18T01:33:06;100675.50;;;29.70;24.05
54816;BME280;40715;55.752;37.884;2023-03-18T01:35:35;100687.81;;;29.74;23.84
54816;BME280;40715;55.752;37.884;2023-03-18T01:38:04;100701.41;;;29.74;24.03
54816;BME280;40715;55.752;37.884;2023-03-18T01:40:33;100704.13;;;29.74;23.93
54816;BME280;40715;55.752;37.884;2023-03-18T01:45:38;100704.22;;;29.73;24.14
54816;BME280;40715;55.752;37.884;2023-03-18T01:48:12;100710.66;;;29.72;24.28
54816;BME280;40715;55.752;37.884;2023-03-18T01:50:40;100710.53;;;29.73;24.01
54816;BME280;40715;55.752;37.884;2023-03-18T01:53:12;100709.78;;;29.71;23.94
54816;BME280;40715;55.752;37.884;2023-03-18T01:55:40;100709.66;;;29.73;24.17
54816;BME280;40715;55.752;37.884;2023-03-18T01:58:14;100713.38;;;29.72;23.78
54816;BME280;40715;55.752;37.884;2023-03-18T02:00:46;100717.94;;;29.71;24.11
54816;BME280;40715;55.752;37.884;2023-03-18T02:03:15;100724.44;;;29.80;23.69
54816;BME280;40715;55.752;37.884;2023-03-18T02:05:42;100723.44;;;29.81;23.68
54816;BME280;40715;55.752;37.884;2023-03-18T02:08:09;100715.28;;;29.81;23.52
54816;BME280;40715;55.752;37.884;2023-03-18T02:10:37;100723.44;;;29.81;23.79
54816;BME280;40715;55.752;37.884;2023-03-18T02:13:07;100726.16;;;29.81;23.88
54816;BME280;40715;55.752;37.884;2023-03-18T02:15:37;100731.44;;;29.83;23.54
54816;BME280;40715;55.752;37.884;2023-03-18T02:18:11;100725.31;;;29.81;23.67
54816;BME280;40715;55.752;37.884;2023-03-18T02:26:09;100741.38;;;29.84;23.62
54816;BME280;40715;55.752;37.884;2023-03-18T02:28:39;100739.41;;;29.74;23.70
54816;BME280;40715;55.752;37.884;2023-03-18T02:31:10;100744.38;;;29.69;23.60
54816;BME280;40715;55.752;37.884;2023-03-18T02:33:39;100743.53;;;29.69;23.60
54816;BME280;40715;55.752;37.884;2023-03-18T02:36:12;100744.50;;;29.68;23.60
54816;BME280;40715;55.752;37.884;2023-03-18T02:38:41;100752.66;;;29.68;23.86
54816;BME280;40715;55.752;37.884;2023-03-18T02:41:30;100746.41;;;29.77;23.66
54816;BME280;40715;55.752;37.884;2023-03-18T02:43:58;100759.34;;;29.64;23.80
54816;BME280;40715;55.752;37.884;2023-03-18T02:46:33;100756.88;;;29.60;24.08
54816;BME280;40715;55.752;37.884;2023-03-18T02:49:02;100758.78;;;30.23;23.29
54816;BME280;40715;55.752;37.884;2023-03-18T02:51:30;100755.88;;;29.61;23.74
54816;BME280;40715;55.752;37.884;2023-03-18T02:54:05;100765.66;;;29.53;24.24
54816;BME280;40715;55.752;37.884;2023-03-18T02:56:33;100769.53;;;29.50;24.28
54816;BME280;40715;55.752;37.884;2023-03-18T02:59:00;100772.25;;;29.50;24.10
54816;BME280;40715;55.752;37.884;2023-03-18T03:01:27;100775.06;;;29.49;24.23
54816;BME280;40715;55.752;37.884;2023-03-18T03:03:55;100780.59;;;29.47;24.22
54816;BME280;40715;55.752;37.884;2023-03-18T03:06:23;100781.63;;;29.46;24.36
54816;BME280;40715;55.752;37.884;2023-03-18T03:08:50;100780.75;;;29.46;24.26
54816;BME280;40715;55.752;37.884;2023-03-18T03:11:19;100775.44;;;29.44;24.01
54816;BME280;40715;55.752;37.884;2023-03-18T03:13:47;100777.91;;;29.47;24.31
54816;BME280;40715;55.752;37.884;2023-03-18T03:16:15;100784.47;;;29.44;24.26
54816;BME280;40715;55.752;37.884;2023-03-18T03:18:43;100780.03;;;29.43;24.21
54816;BME280;40715;55.752;37.884;2023-03-18T03:21:10;100789.00;;;29.44;24.36
54816;BME280;40715;55.752;37.884;2023-03-18T03:23:39;100787.28;;;29.43;24.19
54816;BME280;40715;55.752;37.884;2023-03-18T03:26:07;100789.16;;;29.42;24.27
54816;BME280;40715;55.752;37.884;2023-03-18T03:28:34;100778.41;;;29.41;24.27
54816;BME280;40715;55.752;37.884;2023-03-18T03:31:01;100785.59;;;29.42;24.52
54816;BME280;40715;55.752;37.884;2023-03-18T03:33:29;100787.28;;;29.43;24.24
54816;BME280;40715;55.752;37.884;2023-03-18T03:35:56;100791.16;;;29.40;24.38
54816;BME280;40715;55.752;37.884;2023-03-18T03:38:25;100785.59;;;29.42;24.27
54816;BME280;40715;55.752;37.884;2023-03-18T03:40:52;100781.75;;;29.44;24.09
54816;BME280;40715;55.752;37.884;2023-03-18T03:43:20;100789.50;;;29.49;24.27
54816;BME280;40715;55.752;37.884;2023-03-18T03:45:46;100788.53;;;29.50;24.00
54816;BME280;40715;55.752;37.884;2023-03-18T03:48:14;100790.34;;;29.50;24.05
54816;BME280;40715;55.752;37.884;2023-03-18T03:50:41;100792.09;;;29.51;24.24
54816;BME280;40715;55.752;37.884;2023-03-18T03:53:08;100788.53;;;29.50;24.35
54816;BME280;40715;55.752;37.884;2023-03-18T03:55:36;100786.78;;;29.49;23.99
54816;BME280;40715;55.752;37.884;2023-03-18T03:58:03;100794.69;;;29.52;24.09
54816;BME280;40715;55.752;37.884;2023-03-18T04:00:31;100794.94;;;29.49;24.02
54816;BME280;40715;55.752;37.884;2023-03-18T04:02:59;100797.25;;;29.54;23.95
54816;BME280;40715;55.752;37.884;2023-03-18T04:05:26;100797.38;;;29.52;24.23
54816;BME280;40715;55.752;37.884;2023-03-18T04:07:53;100800.81;;;29.54;23.92
54816;BME280;40715;55.752;37.884;2023-03-18T04:10:21;100800.72;;;29.56;24.07
54816;BME280;40715;55.752;37.884;2023-03-18T04:12:48;100807.25;;;29.53;23.95
54816;BME280;40715;55.752;37.884;2023-03-18T04:15:17;100788.63;;;29.49;23.98
54816;BME280;40715;55.752;37.884;2023-03-18T04:17:45;100806.88;;;29.58;24.01
54816;BME280;40715;55.752;37.884;2023-03-18T04:20:12;100805.41;;;29.54;24.07
54816;BME280;40715;55.752;37.884;2023-03-18T04:22:40;100805.13;;;29.57;23.86
54816;BME280;40715;55.752;37.884;2023-03-18T04:25:08;100809.19;;;29.63;23.87
54816;BME280;40715;55.752;37.884;2023-03-18T04:27:37;100809.31;;;29.61;24.01
54816;BME280;40715;55.752;37.884;2023-03-18T04:30:07;100807.38;;;29.63;23.99
54816;BME280;40715;55.752;37.884;2023-03-18T04:32:34;100816.22;;;29.65;23.61
54816;BME280;40715;55.752;37.884;2023-03-18T04:35:01;100823.25;;;29.68;24.03
54816;BME280;40715;55.752;37.884;2023-03-18T04:37:28;100821.41;;;29.68;23.89
54816;BME280;40715;55.752;37.884;2023-03-18T04:39:55;100826.81;;;29.68;23.78
54816;BME280;40715;55.752;37.884;2023-03-18T04:42:23;100819.06;;;29.64;23.78
54816;BME280;40715;55.752;37.884;2023-03-18T04:44:51;100825.72;;;29.71;23.96
54816;BME280;40715;55.752;37.884;2023-03-18T04:47:18;100828.28;;;29.72;23.76
54816;BME280;40715;55.752;37.884;2023-03-18T04:49:44;100835.47;;;29.73;23.98
54816;BME280;40715;55.752;37.884;2023-03-18T04:52:12;100824.47;;;29.75;24.08
54816;BME280;40715;55.752;37.884;2023-03-18T04:54:39;100828.66;;;29.79;24.20
54816;BME280;40715;55.752;37.884;2023-03-18T04:57:05;100826.91;;;29.78;23.80
54816;BME280;40715;55.752;37.884;2023-03-18T04:59:33;100833.94;;;29.81;23.94
54816;BME280;40715;55.752;37.884;2023-03-18T05:02:00;100833.09;;;29.80;24.03
54816;BME280;40715;55.752;37.884;2023-03-18T05:04:27;100836.53;;;29.82;23.99
54816;BME280;40715;55.752;37.884;2023-03-18T05:06:54;100838.63;;;29.78;23.93
54816;BME280;40715;55.752;37.884;2023-03-18T05:09:21;100845.94;;;29.78;24.29
54816;BME280;40715;55.752;37.884;2023-03-18T05:11:48;100848.66;;;29.78;24.06
54816;BME280;40715;55.752;37.884;2023-03-18T05:14:15;100847.94;;;29.76;24.07
54816;BME280;40715;55.752;37.884;2023-03-18T05:16:42;100852.22;;;29.78;24.09
54816;BME280;40715;55.752;37.884;2023-03-18T05:19:09;100846.78;;;29.78;24.35
54816;BME280;40715;55.752;37.884;2023-03-18T05:21:36;100858.66;;;29.77;24.28
54816;BME280;40715;55.752;37.884;2023-03-18T05:24:03;100857.41;;;29.82;24.04
54816;BME280;40715;55.752;37.884;2023-03-18T05:26:30;100853.69;;;29.83;24.44
54816;BME280;40715;55.752;37.884;2023-03-18T05:28:57;100857.19;;;29.85;24.27
54816;BME280;40715;55.752;37.884;2023-03-18T05:31:25;100862.47;;;29.86;24.21
54816;BME280;40715;55.752;37.884;2023-03-18T05:33:52;100867.03;;;29.86;24.32
54816;BME280;40715;55.752;37.884;2023-03-18T05:36:19;100859.63;;;29.88;24.04
54816;BME280;40715;55.752;37.884;2023-03-18T05:38:46;100855.81;;;29.90;24.30
54816;BME280;40715;55.752;37.884;2023-03-18T05:41:13;100855.13;;;29.98;23.90
54816;BME280;40715;55.752;37.884;2023-03-18T05:43:40;100863.28;;;29.98;24.00
54816;BME280;40715;55.752;37.884;2023-03-18T05:46:08;100872.06;;;30.02;24.02
54816;BME280;40715;55.752;37.884;2023-03-18T05:48:35;100861.06;;;30.03;23.74
54816;BME280;40715;55.752;37.884;2023-03-18T05:51:02;100863.63;;;30.05;23.85
54816;BME280;40715;55.752;37.884;2023-03-18T05:53:29;100868.09;;;30.06;23.81
54816;BME280;40715;55.752;37.884;2023-03-18T05:55:57;100863.38;;;30.08;23.91
54816;BME280;40715;55.752;37.884;2023-03-18T05:58:24;100870.69;;;30.07;23.80
54816;BME280;40715;55.752;37.884;2023-03-18T06:00:56;100871.25;;;30.11;23.83
54816;BME280;40715;55.752;37.884;2023-03-18T06:03:25;100874.09;;;30.09;23.74
54816;BME280;40715;55.752;37.884;2023-03-18T06:05:53;100871.25;;;30.11;23.98
54816;BME280;40715;55.752;37.884;2023-03-18T06:08:20;100868.41;;;30.12;23.73
54816;BME280;40715;55.752;37.884;2023-03-18T06:10:47;100879.16;;;30.14;23.73
54816;BME280;40715;55.752;37.884;2023-03-18T06:13:14;100877.31;;;30.15;23.57
54816;BME280;40715;55.752;37.884;2023-03-18T06:15:42;100879.16;;;30.14;23.66
54816;BME280;40715;55.752;37.884;2023-03-18T06:18:09;100870.16;;;30.13;23.58
54816;BME280;40715;55.752;37.884;2023-03-18T06:20:36;100880.63;;;30.18;23.61
54816;BME280;40715;55.752;37.884;2023-03-18T06:23:03;100883.19;;;30.20;23.70
54816;BME280;40715;55.752;37.884;2023-03-18T06:25:30;100880.34;;;30.21;24.07
54816;BME280;40715;55.752;37.884;2023-03-18T06:27:58;100879.22;;;30.24;23.88
54816;BME280;40715;55.752;37.884;2023-03-18T06:30:25;100884.66;;;30.24;23.87
54816;BME280;40715;55.752;37.884;2023-03-18T06:32:52;100895.66;;;30.22;24.03
54816;BME280;40715;55.752;37.884;2023-03-18T06:35:19;100885.41;;;30.26;23.75
54816;BME280;40715;55.752;37.884;2023-03-18T06:37:46;100902.31;;;30.29;23.73
54816;BME280;40715;55.752;37.884;2023-03-18T06:40:14;100891.28;;;30.31;23.79
54816;BME280;40715;55.752;37.884;2023-03-18T06:42:41;100887.84;;;30.29;23.85
54816;BME280;40715;55.752;37.884;2023-03-18T06:45:08;100889.47;;;30.32;23.90
54816;BME280;40715;55.752;37.884;2023-03-18T06:47:35;100892.03;;;30.33;23.78
54816;BME280;40715;55.752;37.884;2023-03-18T06:50:03;100887.47;;;30.34;23.57
54816;BME280;40715;55.752;37.884;2023-03-18T06:52:30;100892.19;;;30.32;23.77
54816;BME280;40715;55.752;37.884;2023-03-18T06:54:57;100890.19;;;30.34;23.69
54816;BME280;40715;55.752;37.884;2023-03-18T06:57:24;100891.78;;;30.36;23.37
54816;BME280;40715;55.752;37.884;2023-03-18T06:59:52;100882.50;;;30.39;23.55
54816;BME280;40715;55.752;37.884;2023-03-18T07:02:19;100884.34;;;30.38;23.52
54816;BME280;40715;55.752;37.884;2023-03-18T07:04:49;100885.94;;;30.41;23.74
54816;BME280;40715;55.752;37.884;2023-03-18T07:07:17;100892.25;;;30.41;23.36
54816;BME280;40715;55.752;37.884;2023-03-18T07:09:44;100897.69;;;30.41;23.23
54816;BME280;40715;55.752;37.884;2023-03-18T07:12:12;100904.97;;;30.41;23.45
54816;BME280;40715;55.752;37.884;2023-03-18T07:14:39;100893.25;;;30.40;23.32
54816;BME280;40715;55.752;37.884;2023-03-18T07:17:08;100905.75;;;30.43;23.31
54816;BME280;40715;55.752;37.884;2023-03-18T07:19:36;100907.31;;;30.45;23.30
54816;BME280;40715;55.752;37.884;2023-03-18T07:22:03;100913.63;;;30.46;23.55
54816;BME280;40715;55.752;37.884;2023-03-18T07:24:30;100895.72;;;30.43;23.44
54816;BME280;40715;55.752;37.884;2023-03-18T07:26:57;100896.31;;;30.47;23.16
54816;BME280;40715;55.752;37.884;2023-03-18T07:29:25;100915.22;;;30.49;23.42
54816;BME280;40715;55.752;37.884;2023-03-18T07:31:51;100911.63;;;30.48;23.02
54816;BME280;40715;55.752;37.884;2023-03-18T07:34:18;100908.63;;;30.51;23.38
54816;BME280;40715;55.752;37.884;2023-03-18T07:36:46;100909.25;;;30.55;23.14
54816;BME280;40715;55.752;37.884;2023-03-18T07:39:13;100907.25;;;30.57;23.21
54816;BME280;40715;55.752;37.884;2023-03-18T07:41:41;100907.25;;;30.57;22.97
54816;BME280;40715;55.752;37.884;2023-03-18T07:44:08;100907.72;;;30.62;23.20
54816;BME280;40715;55.752;37.884;2023-03-18T07:46:35;100904.16;;;30.61;23.03
54816;BME280;40715;55.752;37.884;2023-03-18T07:49:02;100899.44;;;30.63;23.11
54816;BME280;40715;55.752;37.884;2023-03-18T07:51:29;100895.72;;;30.64;22.97
54816;BME280;40715;55.752;37.884;2023-03-18T07:53:56;100900.41;;;30.62;22.97
54816;BME280;40715;55.752;37.884;2023-03-18T07:56:23;100898.56;;;30.63;22.98
54816;BME280;40715;55.752;37.884;2023-03-18T07:58:50;100895.09;;;30.61;22.59
54816;BME280;40715;55.752;37.884;2023-03-18T08:01:17;100905.28;;;30.59;22.59
54816;BME280;40715;55.752;37.884;2023-03-18T08:03:45;100897.81;;;30.61;22.86
54816;BME280;40715;55.752;37.884;2023-03-18T08:06:14;100901.44;;;30.61;22.81
54816;BME280;40715;55.752;37.884;2023-03-18T08:08:41;100894.13;;;30.62;22.85
54816;BME280;40715;55.752;37.884;2023-03-18T08:11:09;100895.25;;;30.59;22.94
54816;BME280;40715;55.752;37.884;2023-03-18T08:13:37;100900.69;;;30.59;22.57
54816;BME280;40715;55.752;37.884;2023-03-18T08:16:06;100905.28;;;30.59;22.92
54816;BME280;40715;55.752;37.884;2023-03-18T08:18:33;100898.84;;;30.60;22.54
54816;BME280;40715;55.752;37.884;2023-03-18T08:21:00;100899.84;;;30.59;22.96
54816;BME280;40715;55.752;37.884;2023-03-18T08:23:27;100900.69;;;30.59;22.85
54816;BME280;40715;55.752;37.884;2023-03-18T08:25:54;100906.88;;;30.61;22.90
54816;BME280;40715;55.752;37.884;2023-03-18T08:28:21;100908.56;;;30.62;22.60
54816;BME280;40715;55.752;37.884;2023-03-18T08:30:53;100905.13;;;30.60;22.87
54816;BME280;40715;55.752;37.884;2023-03-18T08:33:22;100897.69;;;30.62;22.82
54816;BME280;40715;55.752;37.884;2023-03-18T08:35:49;100900.28;;;30.64;22.70
54816;BME280;40715;55.752;37.884;2023-03-18T08:38:17;100895.84;;;30.63;22.71
54816;BME280;40715;55.752;37.884;2023-03-18T08:40:45;100903.00;;;30.64;22.72
54816;BME280;40715;55.752;37.884;2023-03-18T08:43:13;100907.59;;;30.63;22.63
54816;BME280;40715;55.752;37.884;2023-03-18T08:45:39;100906.47;;;30.66;22.58
54816;BME280;40715;55.752;37.884;2023-03-18T08:48:06;100899.16;;;30.67;22.50
54816;BME280;40715;55.752;37.884;2023-03-18T08:50:34;100896.28;;;30.68;22.66
54816;BME280;40715;55.752;37.884;2023-03-18T08:53:03;100893.56;;;30.68;22.31
54816;BME280;40715;55.752;37.884;2023-03-18T08:55:32;100895.03;;;30.72;22.35
54816;BME280;40715;55.752;37.884;2023-03-18T08:58:00;100890.19;;;30.76;22.36
54816;BME280;40715;55.752;37.884;2023-03-18T09:00:27;100893.63;;;30.78;22.22
54816;BME280;40715;55.752;37.884;2023-03-18T09:02:54;100894.09;;;30.83;22.41
54816;BME280;40715;55.752;37.884;2023-03-18T09:05:22;100897.25;;;30.88;22.19
54816;BME280;40715;55.752;37.884;2023-03-18T09:07:50;100895.63;;;30.97;21.93
54816;BME280;40715;55.752;37.884;2023-03-18T09:10:18;100882.63;;;31.01;22.10
54816;BME280;40715;55.752;37.884;2023-03-18T09:12:46;100880.66;;;31.12;22.12
54816;BME280;40715;55.752;37.884;2023-03-18T09:15:17;100881.72;;;31.21;22.19
54816;BME280;40715;55.752;37.884;2023-03-18T09:17:47;100883.59;;;31.30;22.33
54816;BME280;40715;55.752;37.884;2023-03-18T09:20:34;100884.59;;;31.39;22.21
54816;BME280;40715;55.752;37.884;2023-03-18T09:23:02;100882.31;;;31.35;21.99
54816;BME280;40715;55.752;37.884;2023-03-18T09:25:29;100877.16;;;31.31;21.83
54816;BME280;40715;55.752;37.884;2023-03-18T09:27:56;100882.13;;;31.26;22.02
54816;BME280;40715;55.752;37.884;2023-03-18T09:30:23;100880.97;;;31.19;21.94
54816;BME280;40715;55.752;37.884;2023-03-18T09:32:52;100869.06;;;31.10;22.07
54816;BME280;40715;55.752;37.884;2023-03-18T09:35:19;100873.19;;;31.05;22.45
54816;BME280;40715;55.752;37.884;2023-03-18T09:37:46;100874.44;;;31.01;22.17
54816;BME280;40715;55.752;37.884;2023-03-18T09:40:19;100864.22;;;30.93;22.43
54816;BME280;40715;55.752;37.884;2023-03-18T09:57:02;100852.63;;;30.60;22.97
54816;BME280;40715;55.752;37.884;2023-03-18T09:59:38;100851.88;;;30.58;22.84
54816;BME280;40715;55.752;37.884;2023-03-18T10:02:28;100845.22;;;30.72;22.49
54816;BME280;40715;55.752;37.884;2023-03-18T10:05:02;100842.25;;;30.54;22.95
54816;BME280;40715;55.752;37.884;2023-03-18T10:07:37;100843.50;;;30.50;22.77
54816;BME280;40715;55.752;37.884;2023-03-18T10:10:27;100843.13;;;30.54;22.76
54816;BME280;40715;55.752;37.884;2023-03-18T10:13:18;100839.00;;;30.60;22.55
54816;BME280;40715;55.752;37.884;2023-03-18T10:15:51;100837.78;;;30.43;22.80
54816;BME280;40715;55.752;37.884;2023-03-18T10:18:28;100827.25;;;30.38;22.87
54816;BME280;40715;55.752;37.884;2023-03-18T10:26:33;100834.34;;;30.29;22.82
54816;BME280;40715;55.752;37.884;2023-03-18T10:40:17;100816.44;;;30.27;23.75
54816;BME280;40715;55.752;37.884;2023-03-18T10:42:47;100816.00;;;30.22;24.19
54816;BME280;40715;55.752;37.884;2023-03-18T10:45:26;100811.88;;;30.27;24.11
54816;BME280;40715;55.752;37.884;2023-03-18T10:48:06;100815.72;;;30.25;24.25
54816;BME280;40715;55.752;37.884;2023-03-18T10:51:02;100807.22;;;30.18;24.48
54816;BME280;40715;55.752;37.884;2023-03-18T10:53:40;100811.13;;;30.25;24.75
54816;BME280;40715;55.752;37.884;2023-03-18T10:56:10;100800.94;;;30.18;24.83
54816;BME280;40715;55.752;37.884;2023-03-18T10:58:39;100803.38;;;30.21;24.83
54816;BME280;40715;55.752;37.884;2023-03-18T11:01:09;100800.66;;;30.21;25.15
54816;BME280;40715;55.752;37.884;2023-03-18T11:03:44;100797.94;;;30.21;25.46
54816;BME280;40715;55.752;37.884;2023-03-18T11:06:35;100797.88;;;30.32;25.32
54816;BME280;40715;55.752;37.884;2023-03-18T11:09:07;100798.44;;;30.26;25.52
54816;BME280;40715;55.752;37.884;2023-03-18T11:11:34;100795.94;;;30.23;25.88
54816;BME280;40715;55.752;37.884;2023-03-18T11:14:10;100795.94;;;30.23;26.04
54816;BME280;40715;55.752;37.884;2023-03-18T11:17:41;100794.84;;;30.46;25.99
54816;BME280;40715;55.752;37.884;2023-03-18T11:22:43;100798.28;;;30.27;26.21
54816;BME280;40715;55.752;37.884;2023-03-18T11:25:12;100793.84;;;30.26;26.63
54816;BME280;40715;55.752;37.884;2023-03-18T11:27:46;100790.50;;;30.23;26.74
54816;BME280;40715;55.752;37.884;2023-03-18T11:30:18;100789.53;;;30.24;27.03
54816;BME280;40715;55.752;37.884;2023-03-18T11:33:11;100780.38;;;30.25;27.15
54816;BME280;40715;55.752;37.884;2023-03-18T11:35:52;100774.81;;;30.26;26.96
54816;BME280;40715;55.752;37.884;2023-03-18T11:38:29;100769.66;;;30.23;27.12
54816;BME280;40715;55.752;37.884;2023-03-18T11:41:21;100772.94;;;30.27;26.85
54816;BME280;40715;55.752;37.884;2023-03-18T11:46:46;100778.25;;;30.28;27.10
54816;BME280;40715;55.752;37.884;2023-03-18T11:49:21;100776.47;;;30.18;27.20
54816;BME280;40715;55.752;37.884;2023-03-18T12:09:02;100761.94;;;30.28;26.82
54816;BME280;40715;55.752;37.884;2023-03-18T12:14:41;100765.75;;;30.16;26.73
54816;BME280;40715;55.752;37.884;2023-03-18T12:28:18;100744.31;;;30.23;26.64
54816;BME280;40715;55.752;37.884;2023-03-18T12:33:56;100737.59;;;30.27;26.55
54816;BME280;40715;55.752;37.884;2023-03-18T12:45:14;100725.84;;;30.17;26.75
54816;BME280;40715;55.752;37.884;2023-03-18T12:47:51;100725.56;;;30.20;26.79
54816;BME280;40715;55.752;37.884;2023-03-18T12:53:06;100722.31;;;30.26;26.66
54816;BME280;40715;55.752;37.884;2023-03-18T12:56:14;100722.94;;;30.39;26.77
54816;BME280;40715;55.752;37.884;2023-03-18T12:58:46;100718.56;;;30.17;27.05
54816;BME280;40715;55.752;37.884;2023-03-18T13:01:31;100717.88;;;30.25;27.00
54816;BME280;40715;55.752;37.884;2023-03-18T13:04:03;100717.41;;;30.20;26.93
54816;BME280;40715;55.752;37.884;2023-03-18T13:06:41;100713.56;;;30.22;26.96
54816;BME280;40715;55.752;37.884;2023-03-18T13:09:36;100715.63;;;30.40;26.79
54816;BME280;40715;55.752;37.884;2023-03-18T13:17:31;100698.56;;;30.28;26.77
54816;BME280;40715;55.752;37.884;2023-03-18T13:20:01;100699.31;;;30.30;26.81
54816;BME280;40715;55.752;37.884;2023-03-18T13:25:38;100698.22;;;30.42;26.45
54816;BME280;40715;55.752;37.884;2023-03-18T13:28:33;100697.09;;;30.45;26.62
54816;BME280;40715;55.752;37.884;2023-03-18T13:31:07;100691.06;;;30.41;26.27
54816;BME280;40715;55.752;37.884;2023-03-18T13:45:20;100688.94;;;30.45;26.50
54816;BME280;40715;55.752;37.884;2023-03-18T13:48:02;100677.72;;;30.38;26.66
54816;BME280;40715;55.752;37.884;2023-03-18T13:50:32;100675.41;;;30.34;26.22
54816;BME280;40715;55.752;37.884;2023-03-18T13:53:02;100672.13;;;30.30;26.24
54816;BME280;40715;55.752;37.884;2023-03-18T13:55:40;100672.28;;;30.38;26.58
54816;BME280;40715;55.752;37.884;2023-03-18T13:58:43;100674.53;;;30.54;26.07
54816;BME280;40715;55.752;37.884;2023-03-18T14:09:32;100658.66;;;30.59;26.42
54816;BME280;40715;55.752;37.884;2023-03-18T14:12:15;100665.59;;;30.42;25.99
54816;BME280;40715;55.752;37.884;2023-03-18T14:17:27;100653.59;;;30.45;25.90
54816;BME280;40715;55.752;37.884;2023-03-18T14:26:19;100646.59;;;30.52;25.37
54816;BME280;40715;55.752;37.884;2023-03-18T14:28:53;100642.00;;;30.43;25.41
54816;BME280;40715;55.752;37.884;2023-03-18T14:31:32;100648.56;;;30.40;25.49
54816;BME280;40715;55.752;37.884;2023-03-18T14:39:47;100641.00;;;30.44;25.55
54816;BME280;40715;55.752;37.884;2023-03-18T14:47:58;100645.97;;;30.39;25.01
54816;BME280;40715;55.752;37.884;2023-03-18T14:51:03;100645.97;;;30.39;25.32
54816;BME280;40715;55.752;37.884;2023-03-18T14:53:36;100632.66;;;30.36;24.96
54816;BME280;40715;55.752;37.884;2023-03-18T14:56:21;100636.56;;;30.43;25.00
54816;BME280;40715;55.752;37.884;2023-03-18T14:59:23;100632.31;;;30.50;24.91
54816;BME280;40715;55.752;37.884;2023-03-18T15:02:36;100639.50;;;30.40;25.01
54816;BME280;40715;55.752;37.884;2023-03-18T15:05:04;100649.97;;;30.35;24.87
54816;BME280;40715;55.752;37.884;2023-03-18T15:07:55;100642.78;;;30.34;25.22
54816;BME280;40715;55.752;37.884;2023-03-18T15:10:31;100632.38;;;30.39;24.76
54816;BME280;40715;55.752;37.884;2023-03-18T15:13:22;100628.53;;;30.41;24.64
54816;BME280;40715;55.752;37.884;2023-03-18T15:16:08;100637.97;;;30.37;24.54
54816;BME280;40715;55.752;37.884;2023-03-18T15:18:38;100636.66;;;30.32;24.60